Time;durP1;ratioP1;P1;durP2;ratioP2;P2;SDS_P1;SDS_P2;PMS_P1;PMS_P2;Temp;Humidity;BMP_temperature;BMP_pressure;BME280_temperature;BME280_humidity;BME280_pressure;Samples;Min_cycle;Max_cycle;Signal;HPM_P1;HPM_P2
2024/01/05 00:01:37;;;;;;;0.80;0.52;;;18.20;70.40;;;;;;4994997;28;20528;-87
2024/01/05 00:04:02;;;;;;;0.77;0.50;;;18.10;70.50;;;;;;4972140;28;20089;-86
2024/01/05 00:06:28;;;;;;;1.20;0.57;;;18.10;70.50;;;;;;4975139;28;20046;-86
2024/01/05 00:08:54;;;;;;;1.10;0.80;;;18.10;70.60;;;;;;4967776;28;20462;-86
2024/01/05 00:11:19;;;;;;;0.68;0.40;;;18.00;70.60;;;;;;4977050;28;20039;-86
2024/01/05 00:13:45;;;;;;;2.35;0.50;;;18.00;70.70;;;;;;5001145;28;20045;-86
2024/01/05 00:16:21;;;;;;;1.23;0.70;;;18.00;70.70;;;;;;4975252;28;20056;-85
2024/01/05 00:18:46;;;;;;;0.77;0.50;;;18.00;70.80;;;;;;4979034;28;20046;-86
2024/01/05 00:21:24;;;;;;;0.50;0.50;;;18.00;70.80;;;;;;4990960;28;20104;-86
2024/01/05 00:23:51;;;;;;;1.25;0.57;;;17.90;70.90;;;;;;4997706;28;20038;-85
2024/01/05 00:26:16;;;;;;;1.42;0.50;;;17.90;71.70;;;;;;5013845;28;20832;-85
2024/01/05 00:28:42;;;;;;;1.65;0.70;;;17.90;70.90;;;;;;4993206;28;20618;-83
2024/01/05 00:31:11;;;;;;;0.45;0.45;;;17.90;71.00;;;;;;5012576;28;20033;-83
2024/01/05 00:33:37;;;;;;;0.35;0.30;;;17.90;71.10;;;;;;4996368;28;20065;-84
2024/01/05 00:36:04;;;;;;;1.58;0.65;;;17.80;71.10;;;;;;4991283;28;20042;-84
2024/01/05 00:38:30;;;;;;;0.43;0.30;;;17.80;71.20;;;;;;4991622;28;20043;-84
2024/01/05 00:40:56;;;;;;;1.10;0.60;;;17.80;71.20;;;;;;4990914;28;20033;-83
2024/01/05 00:43:21;;;;;;;0.40;0.30;;;17.80;71.30;;;;;;4962520;28;20037;-83
2024/01/05 00:45:47;;;;;;;0.70;0.43;;;17.80;71.40;;;;;;4994853;28;20046;-83
2024/01/05 00:48:12;;;;;;;0.60;0.47;;;17.80;71.30;;;;;;4993719;28;20057;-83
2024/01/05 00:50:38;;;;;;;0.60;0.50;;;17.80;71.30;;;;;;4970567;28;20048;-84
2024/01/05 00:53:03;;;;;;;1.33;0.50;;;17.70;71.20;;;;;;5001872;28;20452;-84
2024/01/05 00:55:29;;;;;;;0.40;0.40;;;17.70;71.30;;;;;;4979210;28;20455;-84
2024/01/05 00:57:54;;;;;;;0.35;0.35;;;17.70;71.40;;;;;;4991286;28;20057;-84
2024/01/05 01:00:20;;;;;;;1.90;0.45;;;17.70;72.30;;;;;;4992497;28;20038;-84
2024/01/05 01:02:45;;;;;;;0.70;0.40;;;17.60;71.50;;;;;;4993309;28;20136;-84
2024/01/05 01:05:11;;;;;;;0.50;0.40;;;17.60;71.60;;;;;;4992822;28;20038;-84
2024/01/05 01:07:39;;;;;;;0.57;0.55;;;17.60;71.60;;;;;;4995029;28;20112;-85
2024/01/05 01:10:05;;;;;;;0.50;0.50;;;17.60;72.40;;;;;;4993290;28;20048;-85
2024/01/05 01:12:30;;;;;;;0.50;0.50;;;17.60;71.70;;;;;;4942064;28;20432;-84
2024/01/05 01:14:56;;;;;;;0.35;0.35;;;17.60;71.80;;;;;;4977975;28;20566;-84
2024/01/05 01:17:22;;;;;;;0.32;0.30;;;17.60;71.80;;;;;;4998795;28;20651;-84
2024/01/05 01:19:48;;;;;;;0.47;0.47;;;17.60;71.90;;;;;;4997762;28;20026;-84
2024/01/05 01:22:14;;;;;;;0.50;0.40;;;17.60;71.90;;;;;;4996219;28;20133;-84
2024/01/05 01:24:39;;;;;;;2.13;0.40;;;17.50;71.80;;;;;;4961593;28;20128;-87
2024/01/05 01:27:05;;;;;;;0.50;0.38;;;17.50;71.90;;;;;;5014260;28;20596;-84
2024/01/05 01:29:30;;;;;;;0.40;0.40;;;17.50;71.90;;;;;;4993754;28;20408;-84
2024/01/05 01:31:56;;;;;;;0.47;0.40;;;17.50;72.00;;;;;;5017564;28;20072;-84
2024/01/05 01:34:22;;;;;;;0.30;0.30;;;17.50;72.10;;;;;;4999704;28;20041;-84
2024/01/05 01:36:48;;;;;;;0.40;0.40;;;17.50;72.10;;;;;;4999831;28;20061;-84
2024/01/05 01:39:13;;;;;;;0.70;0.38;;;17.50;72.10;;;;;;4995649;28;20056;-85
2024/01/05 01:41:41;;;;;;;0.30;0.25;;;17.40;72.10;;;;;;4998105;28;20034;-84
2024/01/05 01:44:07;;;;;;;0.30;0.30;;;17.40;72.20;;;;;;4998058;28;20042;-84
2024/01/05 01:46:33;;;;;;;0.52;0.38;;;17.40;72.20;;;;;;5000738;28;20034;-84
2024/01/05 01:48:59;;;;;;;0.30;0.30;;;17.40;72.20;;;;;;4983121;28;20084;-84
2024/01/05 01:51:24;;;;;;;0.40;0.40;;;17.40;72.20;;;;;;4983292;28;20033;-84
2024/01/05 01:53:50;;;;;;;0.63;0.47;;;17.40;72.20;;;;;;4979808;28;20034;-84
2024/01/05 01:56:17;;;;;;;0.55;0.50;;;17.40;72.20;;;;;;4997208;28;20527;-84
2024/01/05 01:58:43;;;;;;;0.45;0.45;;;17.40;72.20;;;;;;4997029;28;20038;-84
2024/01/05 02:01:08;;;;;;;0.70;0.55;;;17.30;72.20;;;;;;4988073;28;20535;-84
2024/01/05 02:03:34;;;;;;;0.73;0.20;;;17.30;72.20;;;;;;4994689;28;20424;-84
2024/01/05 02:05:59;;;;;;;0.52;0.20;;;17.30;72.30;;;;;;4995995;28;20397;-83
2024/01/05 02:08:26;;;;;;;0.63;0.40;;;17.30;72.30;;;;;;5000582;28;20531;-84
2024/01/05 02:10:52;;;;;;;0.50;0.40;;;17.30;72.40;;;;;;4996879;28;20428;-84
2024/01/05 02:13:18;;;;;;;0.50;0.40;;;17.30;72.40;;;;;;4996118;28;20102;-84
2024/01/05 02:15:44;;;;;;;0.57;0.40;;;17.30;72.50;;;;;;5002304;28;20030;-84
2024/01/05 02:18:13;;;;;;;0.85;0.40;;;17.30;72.50;;;;;;4996621;28;20454;-84
2024/01/05 02:20:38;;;;;;;0.40;0.40;;;17.20;72.50;;;;;;4999439;28;20057;-84
2024/01/05 02:23:06;;;;;;;0.40;0.40;;;17.30;72.50;;;;;;5017667;28;20049;-84
2024/01/05 02:25:32;;;;;;;0.50;0.30;;;17.20;72.50;;;;;;4998480;28;20038;-87
2024/01/05 02:27:57;;;;;;;0.40;0.40;;;17.20;72.50;;;;;;4995580;28;20639;-86
2024/01/05 02:30:23;;;;;;;0.30;0.30;;;17.20;72.50;;;;;;5010512;28;20049;-85
2024/01/05 02:32:48;;;;;;;0.30;0.20;;;17.20;72.50;;;;;;4979474;28;20119;-86
2024/01/05 02:35:14;;;;;;;0.40;0.30;;;17.10;73.40;;;;;;4992028;28;20034;-83
2024/01/05 02:37:43;;;;;;;1.75;0.40;;;17.20;72.50;;;;;;5000271;28;20045;-83
2024/01/05 02:40:10;;;;;;;0.75;0.45;;;17.20;72.60;;;;;;5001026;28;20057;-83
2024/01/05 02:42:36;;;;;;;0.65;0.40;;;17.20;72.60;;;;;;4994925;28;20037;-83
2024/01/05 02:45:02;;;;;;;0.47;0.30;;;17.20;72.60;;;;;;4979860;28;20052;-83
2024/01/05 02:47:27;;;;;;;0.28;0.28;;;17.20;72.60;;;;;;4994661;28;20058;-82
2024/01/05 02:49:53;;;;;;;1.55;0.45;;;17.10;72.60;;;;;;4996308;28;20480;-82
2024/01/05 02:52:18;;;;;;;0.50;0.45;;;17.10;72.60;;;;;;4999743;28;20029;-82
2024/01/05 02:54:44;;;;;;;0.30;0.30;;;17.10;72.60;;;;;;4994875;28;20030;-82
2024/01/05 02:57:10;;;;;;;0.45;0.30;;;17.10;72.60;;;;;;4991451;28;20057;-82
2024/01/05 02:59:36;;;;;;;0.47;0.47;;;17.10;72.40;;;;;;4992238;28;20489;-82
2024/01/05 03:02:01;;;;;;;0.73;0.47;;;17.10;72.60;;;;;;4993823;28;20042;-84
2024/01/05 03:04:27;;;;;;;0.47;0.45;;;17.10;72.70;;;;;;4991911;28;20057;-84
2024/01/05 03:06:52;;;;;;;0.30;0.20;;;17.10;72.70;;;;;;4991458;28;20417;-84
2024/01/05 03:09:18;;;;;;;0.30;0.30;;;17.10;72.80;;;;;;4990794;28;20068;-84
2024/01/05 03:11:43;;;;;;;0.98;0.45;;;17.10;72.70;;;;;;4995524;28;20101;-84
2024/01/05 03:14:09;;;;;;;0.43;0.43;;;17.10;72.70;;;;;;4989815;28;20058;-84
2024/01/05 03:16:34;;;;;;;0.60;0.50;;;17.00;72.80;;;;;;4987892;28;20412;-84
2024/01/05 03:19:00;;;;;;;0.35;0.30;;;17.00;72.70;;;;;;4991477;28;20463;-84
2024/01/05 03:21:26;;;;;;;1.13;0.35;;;17.00;72.50;;;;;;4996597;28;20045;-85
2024/01/05 03:23:51;;;;;;;0.63;0.50;;;17.00;72.50;;;;;;4993800;28;20327;-85
2024/01/05 03:26:17;;;;;;;1.20;0.32;;;17.10;72.30;;;;;;4973493;28;20045;-85
2024/01/05 03:28:43;;;;;;;0.40;0.40;;;17.10;72.30;;;;;;4975815;28;20141;-84
2024/01/05 03:31:15;;;;;;;0.40;0.40;;;17.10;72.50;;;;;;4990715;28;20133;-85
2024/01/05 03:33:40;;;;;;;0.88;0.43;;;17.10;72.60;;;;;;5007431;28;20096;-86
2024/01/05 03:36:06;;;;;;;0.32;0.32;;;17.10;72.60;;;;;;5002942;28;20478;-86
2024/01/05 03:38:32;;;;;;;0.35;0.35;;;17.00;72.70;;;;;;4995507;28;20038;-87
2024/01/05 03:40:58;;;;;;;0.30;0.30;;;17.00;73.00;;;;;;4968565;28;20034;-86
2024/01/05 03:43:24;;;;;;;0.63;0.40;;;17.10;73.30;;;;;;4974705;28;20137;-86
2024/01/05 03:45:49;;;;;;;0.47;0.40;;;17.00;73.60;;;;;;4991289;28;20037;-86
2024/01/05 03:48:15;;;;;;;0.43;0.40;;;17.00;73.70;;;;;;4992795;28;20519;-86
2024/01/05 03:50:41;;;;;;;0.43;0.30;;;17.00;73.90;;;;;;4993378;28;20026;-86
2024/01/05 03:53:06;;;;;;;0.50;0.30;;;17.00;73.90;;;;;;4973286;28;20053;-87
2024/01/05 03:55:32;;;;;;;0.20;0.20;;;17.00;74.00;;;;;;4973991;28;20524;-86
2024/01/05 03:57:57;;;;;;;0.50;0.35;;;17.00;74.00;;;;;;5008563;28;20038;-86
2024/01/05 04:00:23;;;;;;;0.43;0.40;;;17.00;73.60;;;;;;4992687;28;20177;-86
2024/01/05 04:02:48;;;;;;;0.40;0.30;;;17.00;73.80;;;;;;4990215;28;20100;-86
2024/01/05 04:05:14;;;;;;;0.40;0.40;;;17.00;73.50;;;;;;4971878;28;20034;-86
2024/01/05 04:07:40;;;;;;;0.30;0.30;;;17.00;73.30;;;;;;4973290;28;20432;-86
2024/01/05 04:10:06;;;;;;;0.30;0.22;;;17.00;74.20;;;;;;4985352;28;20035;-86
2024/01/05 04:12:32;;;;;;;0.25;0.20;;;17.00;73.50;;;;;;4986390;28;20137;-86
2024/01/05 04:14:57;;;;;;;0.20;0.20;;;17.00;73.60;;;;;;4981170;28;20521;-85
2024/01/05 04:17:23;;;;;;;0.20;0.20;;;16.90;73.10;;;;;;4976596;28;20045;-85
2024/01/05 04:19:48;;;;;;;0.20;0.20;;;16.90;73.20;;;;;;4988108;28;20118;-86
2024/01/05 04:22:14;;;;;;;0.95;0.50;;;17.00;73.10;;;;;;4993207;28;20404;-85
2024/01/05 04:24:40;;;;;;;0.30;0.20;;;16.90;73.40;;;;;;4957053;28;20055;-86
2024/01/05 04:27:06;;;;;;;0.65;0.28;;;16.90;74.10;;;;;;4963414;28;20173;-86
2024/01/05 04:29:31;;;;;;;0.52;0.30;;;16.90;72.60;;;;;;4947845;28;20140;-85
2024/01/05 04:31:57;;;;;;;0.40;0.25;;;16.90;72.20;;;;;;4956019;28;20412;-86
2024/01/05 04:34:22;;;;;;;0.25;0.25;;;16.90;73.00;;;;;;4972876;28;20042;-86
2024/01/05 04:36:48;;;;;;;0.40;0.30;;;16.90;72.50;;;;;;4972108;28;20065;-86
2024/01/05 04:39:13;;;;;;;0.50;0.30;;;16.90;72.60;;;;;;4979140;28;20043;-85
2024/01/05 04:41:39;;;;;;;1.25;0.30;;;16.90;72.70;;;;;;4995517;28;20647;-86
2024/01/05 04:44:04;;;;;;;0.40;0.40;;;16.90;72.60;;;;;;4988903;28;20038;-85
2024/01/05 04:46:30;;;;;;;0.63;0.52;;;16.90;72.40;;;;;;4975425;28;20034;-85
2024/01/05 04:48:55;;;;;;;0.50;0.40;;;16.90;73.10;;;;;;4987882;28;20385;-86
2024/01/05 04:51:21;;;;;;;0.20;0.20;;;16.90;73.00;;;;;;4993225;28;20022;-85
2024/01/05 04:53:49;;;;;;;0.50;0.40;;;16.90;72.60;;;;;;4971724;28;20074;-86
2024/01/05 04:56:14;;;;;;;0.30;0.30;;;16.90;72.20;;;;;;4990055;28;20050;-85
2024/01/05 04:58:40;;;;;;;0.45;0.45;;;16.90;72.50;;;;;;4982335;28;20043;-85
2024/01/05 05:01:05;;;;;;;0.60;0.50;;;16.90;72.10;;;;;;4994946;28;20526;-85
2024/01/05 05:03:31;;;;;;;0.30;0.30;;;16.80;72.30;;;;;;4988580;28;20039;-84
2024/01/05 05:05:57;;;;;;;0.90;0.32;;;16.80;72.50;;;;;;4974643;28;20078;-84
2024/01/05 05:08:22;;;;;;;0.35;0.20;;;16.80;72.50;;;;;;4992775;28;20174;-86
2024/01/05 05:10:48;;;;;;;0.20;0.20;;;16.80;72.10;;;;;;4989799;28;20523;-86
2024/01/05 05:13:14;;;;;;;0.20;0.20;;;16.80;71.90;;;;;;4983257;28;20759;-84
2024/01/05 05:15:39;;;;;;;0.22;0.22;;;16.80;72.20;;;;;;4984333;28;20049;-86
2024/01/05 05:18:05;;;;;;;0.32;0.25;;;16.80;72.00;;;;;;5009790;28;20516;-85
2024/01/05 05:20:30;;;;;;;0.20;0.20;;;16.80;73.30;;;;;;4986564;28;20051;-84
2024/01/05 05:22:56;;;;;;;0.55;0.22;;;16.80;72.30;;;;;;4972781;28;20531;-85
2024/01/05 05:25:22;;;;;;;0.32;0.20;;;16.80;72.30;;;;;;4995554;28;20061;-85
2024/01/05 05:27:47;;;;;;;0.30;0.30;;;16.80;72.80;;;;;;4985077;28;20496;-85
2024/01/05 05:30:13;;;;;;;0.80;0.50;;;16.80;72.30;;;;;;4992512;28;20519;-86
2024/01/05 05:32:39;;;;;;;0.20;0.20;;;16.80;72.20;;;;;;4970198;28;20046;-84
2024/01/05 05:35:05;;;;;;;0.40;0.20;;;16.80;71.90;;;;;;4971785;28;20045;-84
2024/01/05 05:37:30;;;;;;;1.27;0.50;;;16.70;72.00;;;;;;5004305;28;20047;-85
2024/01/05 05:39:56;;;;;;;0.73;0.30;;;16.80;72.00;;;;;;4982988;28;20100;-83
2024/01/05 05:42:21;;;;;;;0.40;0.22;;;16.80;72.00;;;;;;4987837;28;20046;-84
2024/01/05 05:44:47;;;;;;;0.40;0.30;;;16.70;72.00;;;;;;4994700;28;20045;-85
2024/01/05 05:47:13;;;;;;;0.63;0.35;;;16.70;71.80;;;;;;4995112;28;20093;-84
2024/01/05 05:49:38;;;;;;;0.30;0.20;;;16.70;71.90;;;;;;4980356;28;20623;-84
2024/01/05 05:52:05;;;;;;;0.20;0.20;;;16.70;71.80;;;;;;4987691;28;20042;-84
2024/01/05 05:54:31;;;;;;;0.30;0.28;;;16.70;71.90;;;;;;4990656;28;20590;-83
2024/01/05 05:56:56;;;;;;;0.20;0.20;;;16.70;71.70;;;;;;4994693;28;20046;-83
2024/01/05 05:59:22;;;;;;;0.45;0.20;;;16.70;71.70;;;;;;4979556;28;20046;-87
2024/01/05 06:01:48;;;;;;;0.40;0.35;;;16.70;71.80;;;;;;4989272;28;20042;-88
2024/01/05 06:04:13;;;;;;;0.40;0.20;;;16.70;71.70;;;;;;4991554;28;20523;-89
2024/01/05 06:06:39;;;;;;;0.30;0.22;;;16.70;71.70;;;;;;4994526;28;20042;-84
2024/01/05 06:09:05;;;;;;;0.45;0.45;;;16.70;71.70;;;;;;5002847;28;20417;-84
2024/01/05 06:11:31;;;;;;;0.32;0.30;;;16.70;72.00;;;;;;4988277;28;20043;-84
2024/01/05 06:13:56;;;;;;;0.30;0.25;;;16.70;71.70;;;;;;5009795;28;20470;-87
2024/01/05 06:16:22;;;;;;;0.22;0.22;;;16.70;72.00;;;;;;4993199;28;20418;-86
2024/01/05 06:18:48;;;;;;;0.47;0.30;;;16.70;72.50;;;;;;4986315;28;20041;-85
2024/01/05 06:21:14;;;;;;;0.63;0.20;;;16.80;72.00;;;;;;5013655;28;20045;-85
2024/01/05 06:23:39;;;;;;;0.65;0.43;;;16.80;72.10;;;;;;4974475;28;20137;-84
2024/01/05 06:26:05;;;;;;;1.85;0.40;;;16.80;72.50;;;;;;4991896;28;20118;-87
2024/01/05 06:28:30;;;;;;;0.93;0.50;;;16.70;72.50;;;;;;4976960;28;20785;-89
2024/01/05 06:30:56;;;;;;;0.77;0.40;;;16.80;72.70;;;;;;4994163;28;20484;-91
2024/01/05 06:33:22;;;;;;;3.10;0.60;;;16.70;72.20;;;;;;4995173;28;20137;-90
2024/01/05 06:35:48;;;;;;;2.20;0.55;;;16.70;72.00;;;;;;4982624;28;20049;-89
2024/01/05 06:38:14;;;;;;;0.57;0.38;;;16.80;72.20;;;;;;4981251;28;20037;-88
2024/01/05 06:40:39;;;;;;;1.70;0.40;;;16.70;72.10;;;;;;4995524;28;20057;-88
2024/01/05 06:43:05;;;;;;;1.30;0.40;;;16.70;72.20;;;;;;4999101;28;20049;-87
2024/01/05 06:45:30;;;;;;;0.20;0.20;;;16.70;72.30;;;;;;4977756;28;20092;-89
2024/01/05 06:47:56;;;;;;;0.90;0.38;;;16.70;72.30;;;;;;5001654;28;20070;-87
2024/01/05 06:50:21;;;;;;;0.70;0.30;;;16.70;72.40;;;;;;4951156;28;20046;-86
2024/01/05 06:52:47;;;;;;;0.30;0.30;;;16.70;72.40;;;;;;4993516;28;20397;-89
2024/01/05 06:55:13;;;;;;;0.55;0.20;;;16.70;72.40;;;;;;4992517;28;20254;-89
2024/01/05 06:57:39;;;;;;;1.00;0.50;;;16.60;72.30;;;;;;4990645;28;20471;-88
2024/01/05 07:00:05;;;;;;;0.43;0.25;;;16.70;72.30;;;;;;4993351;28;20034;-86
2024/01/05 07:02:31;;;;;;;0.20;0.20;;;16.60;72.30;;;;;;4991408;28;20447;-88
2024/01/05 07:04:57;;;;;;;2.05;0.28;;;16.60;72.30;;;;;;4996190;28;20100;-88
2024/01/05 07:07:22;;;;;;;0.65;0.20;;;16.60;72.40;;;;;;4990367;28;20042;-87
2024/01/05 07:09:48;;;;;;;1.27;0.40;;;16.60;72.30;;;;;;4975322;28;20512;-87
2024/01/05 07:12:14;;;;;;;0.40;0.30;;;16.60;72.20;;;;;;4989586;28;20125;-86
2024/01/05 07:14:39;;;;;;;0.20;0.20;;;16.60;72.10;;;;;;4972885;28;20404;-85
2024/01/05 07:17:05;;;;;;;0.63;0.20;;;16.60;72.20;;;;;;4985153;28;20046;-87
2024/01/05 07:19:30;;;;;;;0.43;0.20;;;16.60;72.30;;;;;;4986532;28;20057;-86
2024/01/05 07:21:56;;;;;;;0.52;0.20;;;16.60;72.20;;;;;;4978987;28;20076;-86
2024/01/05 07:24:22;;;;;;;0.20;0.20;;;16.50;72.10;;;;;;4986318;28;20495;-85
2024/01/05 07:26:48;;;;;;;0.30;0.30;;;16.50;72.20;;;;;;4981590;28;20034;-86
2024/01/05 07:29:14;;;;;;;0.95;0.17;;;16.50;72.10;;;;;;4978244;28;20035;-86
2024/01/05 07:31:40;;;;;;;0.50;0.30;;;16.50;72.10;;;;;;4986164;28;20482;-85
2024/01/05 07:34:05;;;;;;;0.65;0.38;;;16.50;72.00;;;;;;4992347;28;20038;-87
2024/01/05 07:36:31;;;;;;;0.38;0.30;;;16.50;72.00;;;;;;4987023;28;20041;-86
2024/01/05 07:38:58;;;;;;;0.47;0.30;;;16.50;72.00;;;;;;4989311;28;20109;-86
2024/01/05 07:41:24;;;;;;;0.25;0.20;;;16.50;72.10;;;;;;4972018;28;20041;-86
2024/01/05 07:43:50;;;;;;;1.05;0.30;;;16.50;71.90;;;;;;4988156;28;20050;-87
2024/01/05 07:46:16;;;;;;;0.20;0.17;;;16.50;71.90;;;;;;4992067;28;20045;-86
2024/01/05 07:48:41;;;;;;;0.32;0.10;;;16.50;71.90;;;;;;4988932;28;20160;-86
2024/01/05 07:51:07;;;;;;;0.20;0.20;;;16.50;71.90;;;;;;5008358;28;20041;-86
2024/01/05 07:53:33;;;;;;;0.73;0.20;;;16.50;72.00;;;;;;5009050;28;20041;-90
2024/01/05 07:56:02;;;;;;;0.28;0.20;;;16.50;71.70;;;;;;4971954;28;20053;-86
2024/01/05 07:58:29;;;;;;;0.10;0.10;;;16.50;72.00;;;;;;4995835;28;20041;-89
2024/01/05 08:00:54;;;;;;;0.20;0.20;;;16.50;72.30;;;;;;4992358;28;20124;-87
2024/01/05 08:03:21;;;;;;;0.10;0.10;;;16.50;72.30;;;;;;4995217;28;20116;-87
2024/01/05 08:05:47;;;;;;;0.40;0.40;;;16.50;72.00;;;;;;4997610;28;20928;-87
2024/01/05 08:08:13;;;;;;;2.17;0.30;;;16.50;71.70;;;;;;4995169;28;20037;-86
2024/01/05 08:10:38;;;;;;;1.02;0.20;;;16.50;71.90;;;;;;4997370;28;20049;-87
2024/01/05 08:13:04;;;;;;;0.15;0.15;;;16.50;72.20;;;;;;4995320;28;20072;-88
2024/01/05 08:15:29;;;;;;;1.65;0.28;;;16.50;72.60;;;;;;4994338;28;20117;-87
2024/01/05 08:17:56;;;;;;;1.42;0.40;;;16.50;71.80;;;;;;4976457;28;20058;-87
2024/01/05 08:20:21;;;;;;;0.10;0.10;;;16.50;71.70;;;;;;4978170;28;20044;-88
2024/01/05 08:22:47;;;;;;;0.40;0.20;;;16.50;72.30;;;;;;4994480;28;20430;-89
2024/01/05 08:25:14;;;;;;;0.82;0.30;;;16.50;72.90;;;;;;4993709;28;20052;-88
2024/01/05 08:27:39;;;;;;;0.38;0.28;;;16.50;72.70;;;;;;4989482;28;20837;-85
2024/01/05 08:30:10;;;;;;;0.28;0.28;;;16.50;72.80;;;;;;4980384;28;20073;-86
2024/01/05 08:32:36;;;;;;;0.30;0.25;;;16.60;72.90;;;;;;4995138;28;20096;-86
2024/01/05 08:35:01;;;;;;;0.65;0.40;;;16.60;72.80;;;;;;5008481;28;20041;-87
2024/01/05 08:37:27;;;;;;;1.38;0.40;;;16.60;73.00;;;;;;5012313;28;20119;-87
2024/01/05 08:39:52;;;;;;;0.60;0.20;;;16.70;74.00;;;;;;5001562;28;20072;-85
2024/01/05 08:42:18;;;;;;;0.20;0.20;;;16.70;73.40;;;;;;4981224;28;20108;-90
2024/01/05 08:44:43;;;;;;;1.95;0.32;;;16.80;73.20;;;;;;5001558;28;20482;-86
2024/01/05 08:47:09;;;;;;;0.50;0.20;;;16.70;73.60;;;;;;5011524;28;20576;-85
2024/01/05 08:49:35;;;;;;;4.13;0.20;;;16.80;73.70;;;;;;5015684;28;20130;-85
2024/01/05 08:52:00;;;;;;;0.40;0.20;;;16.70;73.90;;;;;;5001183;28;20117;-85
2024/01/05 08:54:26;;;;;;;2.90;0.20;;;16.80;74.40;;;;;;4983993;28;20037;-86
2024/01/05 08:56:52;;;;;;;3.15;0.32;;;16.80;74.10;;;;;;4998263;28;20466;-86
2024/01/05 08:59:18;;;;;;;0.40;0.30;;;16.80;74.50;;;;;;5000156;28;20037;-86
2024/01/05 09:01:43;;;;;;;0.50;0.28;;;16.90;75.00;;;;;;4995153;28;20053;-89
2024/01/05 09:04:10;;;;;;;1.42;0.20;;;16.90;74.60;;;;;;5006215;28;20046;-85
2024/01/05 09:06:38;;;;;;;0.60;0.40;;;17.00;74.60;;;;;;4991582;28;20054;-90
2024/01/05 09:09:04;;;;;;;0.38;0.20;;;17.00;74.70;;;;;;4999938;28;20176;-89
2024/01/05 09:11:29;;;;;;;0.43;0.32;;;17.00;74.10;;;;;;4983042;28;20042;-91
2024/01/05 09:13:55;;;;;;;0.50;0.30;;;16.90;74.10;;;;;;5001513;28;20044;-89
2024/01/05 09:16:20;;;;;;;0.30;0.10;;;17.00;74.50;;;;;;5003692;28;20069;-90
2024/01/05 09:18:46;;;;;;;1.40;0.55;;;17.00;73.60;;;;;;4985696;28;20046;-90
2024/01/05 09:21:13;;;;;;;1.17;0.25;;;16.90;73.60;;;;;;4996694;28;20054;-90
2024/01/05 09:23:40;;;;;;;0.52;0.20;;;16.90;73.80;;;;;;5015670;28;20049;-88
2024/01/05 09:26:13;;;;;;;0.45;0.25;;;16.90;74.50;;;;;;5000653;28;20101;-90
2024/01/05 09:28:38;;;;;;;0.63;0.30;;;16.80;73.70;;;;;;4968830;28;20057;-90
2024/01/05 09:31:04;;;;;;;1.23;0.38;;;16.80;73.70;;;;;;5003050;28;20041;-92
2024/01/05 09:33:30;;;;;;;0.60;0.20;;;16.80;73.80;;;;;;4976861;28;20558;-90
2024/01/05 09:35:55;;;;;;;0.50;0.50;;;16.80;73.80;;;;;;4975289;28;20172;-89
2024/01/05 09:38:21;;;;;;;1.80;0.30;;;16.90;73.90;;;;;;5000166;28;20054;-89
2024/01/05 09:40:46;;;;;;;0.30;0.13;;;16.80;74.00;;;;;;4996796;28;20070;-89
2024/01/05 09:43:12;;;;;;;1.48;0.10;;;16.80;74.20;;;;;;5015686;28;20508;-90
2024/01/05 09:45:38;;;;;;;1.88;0.50;;;16.90;74.20;;;;;;4992154;28;20072;-90
2024/01/05 09:48:04;;;;;;;0.35;0.13;;;16.90;74.20;;;;;;4978032;28;20407;-88
2024/01/05 09:50:29;;;;;;;1.13;0.15;;;16.90;74.20;;;;;;4989092;28;20522;-89
2024/01/05 09:52:55;;;;;;;0.88;0.32;;;16.90;74.80;;;;;;4991689;28;20052;-89
2024/01/05 09:55:21;;;;;;;0.65;0.30;;;16.90;74.10;;;;;;4997599;28;20046;-90
2024/01/05 09:57:46;;;;;;;0.82;0.30;;;16.90;74.00;;;;;;5013638;28;20045;-89
2024/01/05 10:00:14;;;;;;;0.10;0.10;;;16.90;74.00;;;;;;5002703;28;20041;-90
2024/01/05 10:02:44;;;;;;;0.32;0.20;;;17.00;74.00;;;;;;5007401;28;20225;-87
2024/01/05 10:05:09;;;;;;;1.10;0.30;;;16.90;74.00;;;;;;5016115;28;20046;-87
2024/01/05 10:07:43;;;;;;;3.40;1.48;;;17.00;74.00;;;;;;4991936;28;20057;-89
2024/01/05 10:10:10;;;;;;;1.80;0.90;;;17.00;75.00;;;;;;5011252;28;20488;-87
2024/01/05 10:12:37;;;;;;;1.83;0.65;;;17.00;74.50;;;;;;4976662;28;20053;-87
2024/01/05 10:15:04;;;;;;;2.40;0.50;;;17.10;74.40;;;;;;5015669;28;20132;-87
2024/01/05 10:17:30;;;;;;;1.55;0.85;;;17.00;74.40;;;;;;5017491;28;20042;-88
2024/01/05 10:20:13;;;;;;;1.50;0.57;;;17.00;74.50;;;;;;4996868;28;20396;-88
2024/01/05 10:22:39;;;;;;;0.63;0.50;;;17.00;74.40;;;;;;4993921;28;20141;-88
2024/01/05 10:25:15;;;;;;;3.20;0.43;;;17.00;74.10;;;;;;5001692;28;20065;-89
2024/01/05 10:27:40;;;;;;;0.98;0.55;;;17.00;74.20;;;;;;4994264;28;20294;-87
2024/01/05 10:30:07;;;;;;;0.82;0.45;;;17.00;74.00;;;;;;4996147;28;20045;-87
2024/01/05 10:32:32;;;;;;;0.35;0.35;;;17.00;74.00;;;;;;5007193;28;20054;-87
2024/01/05 10:34:58;;;;;;;0.70;0.40;;;17.00;74.00;;;;;;4997068;28;20109;-88
2024/01/05 10:37:23;;;;;;;1.23;0.30;;;17.00;74.00;;;;;;4997010;28;20052;-91
2024/01/05 10:39:54;;;;;;;0.68;0.45;;;17.00;74.00;;;;;;4995045;28;20038;-82
2024/01/05 10:42:24;;;;;;;0.57;0.40;;;17.00;73.60;;;;;;4998747;28;20037;-89
2024/01/05 10:44:54;;;;;;;1.13;0.40;;;17.10;73.40;;;;;;4992867;28;20059;-90
2024/01/05 10:47:20;;;;;;;0.70;0.30;;;17.10;73.40;;;;;;5012037;28;20037;-90
2024/01/05 10:49:48;;;;;;;0.40;0.35;;;17.10;73.20;;;;;;5012005;28;20054;-87
2024/01/05 10:52:15;;;;;;;0.70;0.20;;;17.20;73.00;;;;;;5013599;28;20049;-88
2024/01/05 10:54:41;;;;;;;1.08;0.30;;;17.20;73.60;;;;;;5013280;28;20478;-87
2024/01/05 10:57:08;;;;;;;1.80;0.30;;;17.20;73.40;;;;;;4995344;28;20077;-87
2024/01/05 10:59:34;;;;;;;2.65;0.22;;;17.20;73.20;;;;;;5000672;28;20045;-88
2024/01/05 11:02:00;;;;;;;0.95;0.50;;;17.20;73.20;;;;;;4999691;28;20050;-87
2024/01/05 11:04:25;;;;;;;0.47;0.20;;;17.20;73.20;;;;;;4993348;28;20594;-89
2024/01/05 11:06:51;;;;;;;1.17;0.30;;;17.20;73.20;;;;;;4992444;28;20475;-90
2024/01/05 11:09:53;;;;;;;0.63;0.40;;;17.20;73.00;;;;;;4996397;28;20053;-89
2024/01/05 11:12:30;;;;;;;0.50;0.20;;;17.20;73.50;;;;;;4973799;28;20049;-90
2024/01/05 11:15:35;;;;;;;0.75;0.25;;;17.20;73.00;;;;;;4996825;28;20046;-90
2024/01/05 11:18:36;;;;;;;1.65;0.30;;;17.20;72.90;;;;;;5014269;28;20088;-90
2024/01/05 11:21:12;;;;;;;1.67;0.50;;;17.20;72.80;;;;;;4893577;29;20052;-87
2024/01/05 11:23:38;;;;;;;2.15;0.50;;;17.10;73.10;;;;;;4925114;29;20208;-86
2024/01/05 11:26:04;;;;;;;1.95;0.50;;;17.20;72.50;;;;;;4926869;29;20040;-86
2024/01/05 11:28:38;;;;;;;0.90;0.30;;;17.20;72.30;;;;;;4911136;29;20048;-86
2024/01/05 11:31:04;;;;;;;0.68;0.50;;;17.20;72.20;;;;;;4928877;29;20150;-87
2024/01/05 11:33:49;;;;;;;0.65;0.40;;;17.30;72.10;;;;;;4927394;29;20530;-87
2024/01/05 11:36:48;;;;;;;1.60;0.32;;;17.20;72.10;;;;;;4894521;29;20059;-87
2024/01/05 11:39:40;;;;;;;0.35;0.20;;;17.30;72.00;;;;;;4905909;29;20044;-88
2024/01/05 11:42:06;;;;;;;0.60;0.50;;;17.30;71.90;;;;;;4925708;29;20091;-87
2024/01/05 11:44:35;;;;;;;0.75;0.55;;;17.30;71.80;;;;;;4909435;29;20566;-86
2024/01/05 11:47:03;;;;;;;0.50;0.40;;;17.30;71.70;;;;;;4923765;29;20106;-88
2024/01/05 11:49:35;;;;;;;1.20;0.30;;;17.30;71.70;;;;;;4911732;29;20150;-88
2024/01/05 11:52:03;;;;;;;0.30;0.22;;;17.30;71.60;;;;;;4920104;29;20048;-88
2024/01/05 11:54:29;;;;;;;1.30;0.40;;;17.30;71.60;;;;;;4908275;29;20047;-88
2024/01/05 11:56:57;;;;;;;0.65;0.47;;;17.30;71.50;;;;;;4931529;28;20062;-88
2024/01/05 11:59:23;;;;;;;0.52;0.32;;;17.30;71.30;;;;;;4990886;28;20037;-88
2024/01/05 12:01:53;;;;;;;0.55;0.30;;;17.30;71.40;;;;;;5008378;28;20421;-88
2024/01/05 12:04:20;;;;;;;0.82;0.50;;;17.30;72.10;;;;;;4997589;28;20049;-86
2024/01/05 12:06:52;;;;;;;1.60;0.20;;;17.40;71.30;;;;;;5007662;28;20084;-87
2024/01/05 12:09:21;;;;;;;0.30;0.20;;;17.40;71.20;;;;;;5008734;28;20062;-87
2024/01/05 12:11:47;;;;;;;1.50;0.30;;;17.30;71.40;;;;;;5008617;28;20439;-91
2024/01/05 12:14:27;;;;;;;0.88;0.47;;;17.30;72.10;;;;;;5007418;28;20048;-87
2024/01/05 12:16:53;;;;;;;1.92;0.63;;;17.40;72.40;;;;;;4988441;28;21124;-86
2024/01/05 12:19:22;;;;;;;4.22;0.80;;;17.30;72.60;;;;;;4981711;28;20042;-85
2024/01/05 12:21:51;;;;;;;1.27;1.10;;;17.30;75.10;;;;;;4991535;28;20129;-88
2024/01/05 12:24:17;;;;;;;4.97;2.30;;;17.40;77.50;;;;;;4986135;28;20053;-89
2024/01/05 12:26:43;;;;;;;6.03;2.70;;;17.30;78.30;;;;;;4986445;28;20043;-87
2024/01/05 12:29:08;;;;;;;5.03;2.53;;;17.40;83.40;;;;;;4980315;28;20054;-85
2024/01/05 12:31:36;;;;;;;3.65;2.03;;;17.40;78.20;;;;;;4998912;28;20528;-84
2024/01/05 12:34:02;;;;;;;2.60;1.80;;;17.40;78.10;;;;;;4987908;28;20129;-87
2024/01/05 12:36:28;;;;;;;2.15;1.10;;;17.40;78.90;;;;;;4988740;28;20045;-87
2024/01/05 12:38:53;;;;;;;1.30;0.80;;;17.30;78.10;;;;;;5006449;28;20045;-87
2024/01/05 12:41:19;;;;;;;4.47;1.10;;;17.30;77.00;;;;;;5009791;28;20140;-88
2024/01/05 12:43:46;;;;;;;2.13;0.88;;;17.40;76.40;;;;;;5005029;28;20049;-85
2024/01/05 12:46:12;;;;;;;1.45;0.82;;;17.50;76.20;;;;;;5010596;28;20048;-89